Fantasia — ICJY — position and weather

sailwx.info

Track history (hours):
 
Tides and Currents Weather Stations Pressure Air Temp Water Temp Dewpoint Dewpoint Depression Visibility Wind Speed Wind Dir Waves Ship Positions

Fantasia

Last reported at 2014-Dec-03 17:20 UTC. Time now 2014-Dec-20 13:43 UTC.
Position N 36°13' E 027°05'.
Warning: this ship's position is 16 days out of date.

Length 183 m; draft 10.3 m.

Type: Tanker. MMSI: 247279600.

Date/timePositionNaut miles runAvg speedWind from/ knotsBaromVisibWave heightAir tempDewpointWater temp
2014-Dec-03 17:20N 36°13' E 027°05'911.0
2014-Dec-03 16:32N 36°20' E 026°58'1111.3
2014-Dec-03 15:33N 36°28' E 026°49'1110.9
2014-Dec-03 14:33N 36°35' E 026°39'1010.3
2014-Dec-03 13:33N 36°43' E 026°31'1110.8
2014-Dec-03 12:33N 36°50' E 026°21'1111.1
2014-Dec-03 11:33N 36°59' E 026°12'1111.4
2014-Dec-03 10:33N 37°09' E 026°05'1211.9
2014-Dec-03 09:33N 37°19' E 025°58'1211.6
2014-Dec-03 08:33N 37°30' E 025°52'1111.4
2014-Dec-03 07:33N 37°41' E 025°49'1211.7
2014-Dec-03 06:33N 37°53' E 025°47'1312.3
2014-Dec-03 05:31N 38°05' E 025°45'1111.4
2014-Dec-03 04:33N 38°16' E 025°44'14110.8
2014-Dec-02 15:25N 40°28' E 026°50'88 9.9
2014-Dec-02 06:32N 40°44' E 028°44'1313.3
2014-Dec-02 05:33N 40°45' E 029°01'1313.1
2014-Dec-02 04:32N 40°44' E 029°19'  
2014-Nov-29 10:16N 40°46' E 029°41'0 0.0
2014-Nov-28 04:22N 40°46' E 029°41'0 0.0
2014-Nov-27 18:22N 40°46' E 029°41'0 0.0
2014-Nov-27 16:04N 40°46' E 029°41'0 0.0
2014-Nov-27 08:19N 40°46' E 029°41'0 0.0
2014-Nov-27 07:20N 40°46' E 029°41'0 0.0
2014-Nov-27 06:21N 40°46' E 029°41'0 0.0
2014-Nov-27 05:24N 40°46' E 029°41'0 0.0
2014-Nov-27 02:12N 40°46' E 029°41'0 0.0
2014-Nov-27 01:10N 40°46' E 029°41'0 0.0
2014-Nov-27 00:27N 40°46' E 029°41'0 0.0
2014-Nov-26 22:28N 40°46' E 029°41'0 0.0
2014-Nov-26 21:30N 40°46' E 029°41'0 0.0
2014-Nov-26 20:14N 40°46' E 029°41'0 0.0
2014-Nov-26 19:30N 40°46' E 029°41'0 0.0
2014-Nov-26 17:31N 40°46' E 029°41'0 0.0
2014-Nov-26 16:11N 40°46' E 029°41'0 0.0
2014-Nov-26 14:19N 40°46' E 029°41'2 1.8
2014-Nov-26 13:21N 40°45' E 029°39'1011.8
2014-Nov-26 12:32N 40°44' E 029°26'9 9.1
2014-Nov-26 11:33N 40°43' E 029°14'10 9.9
2014-Nov-26 10:33N 40°43' E 029°01'1211.5
2014-Nov-26 09:32N 40°43' E 028°46'8812.2
2014-Nov-26 02:18N 40°28' E 026°51'5210.7
2014-Nov-25 21:26N 39°56' E 025°57'  
Track history (hours):
 
Tides and Currents Weather Stations Pressure Air Temp Water Temp Dewpoint Dewpoint Depression Visibility Wind Speed Wind Dir Waves Ship Positions

Fantasia

Last reported at 2014-Dec-03 17:20 UTC. Time now 2014-Dec-20 13:43 UTC.
Position N 36°13' E 027°05'.
Warning: this ship's position is 16 days out of date.

Length 183 m; draft 10.3 m.

Type: Tanker. MMSI: 247279600.

Date/timePositionNaut miles runAvg speedWind from/ knotsBaromVisibWave heightAir tempDewpointWater temp
2014-Dec-03 17:20N 36°13' E 027°05'911.0
2014-Dec-03 16:32N 36°20' E 026°58'1111.3
2014-Dec-03 15:33N 36°28' E 026°49'1110.9
2014-Dec-03 14:33N 36°35' E 026°39'1010.3
2014-Dec-03 13:33N 36°43' E 026°31'1110.8
2014-Dec-03 12:33N 36°50' E 026°21'1111.1
2014-Dec-03 11:33N 36°59' E 026°12'1111.4
2014-Dec-03 10:33N 37°09' E 026°05'1211.9
2014-Dec-03 09:33N 37°19' E 025°58'1211.6
2014-Dec-03 08:33N 37°30' E 025°52'1111.4
2014-Dec-03 07:33N 37°41' E 025°49'1211.7
2014-Dec-03 06:33N 37°53' E 025°47'1312.3
2014-Dec-03 05:31N 38°05' E 025°45'1111.4
2014-Dec-03 04:33N 38°16' E 025°44'14110.8
2014-Dec-02 15:25N 40°28' E 026°50'88 9.9
2014-Dec-02 06:32N 40°44' E 028°44'1313.3
2014-Dec-02 05:33N 40°45' E 029°01'1313.1
2014-Dec-02 04:32N 40°44' E 029°19'  
2014-Nov-29 10:16N 40°46' E 029°41'0 0.0
2014-Nov-28 04:22N 40°46' E 029°41'0 0.0
2014-Nov-27 18:22N 40°46' E 029°41'0 0.0
2014-Nov-27 16:04N 40°46' E 029°41'0 0.0
2014-Nov-27 08:19N 40°46' E 029°41'0 0.0
2014-Nov-27 07:20N 40°46' E 029°41'0 0.0
2014-Nov-27 06:21N 40°46' E 029°41'0 0.0
2014-Nov-27 05:24N 40°46' E 029°41'0 0.0
2014-Nov-27 02:12N 40°46' E 029°41'0 0.0
2014-Nov-27 01:10N 40°46' E 029°41'0 0.0
2014-Nov-27 00:27N 40°46' E 029°41'0 0.0
2014-Nov-26 22:28N 40°46' E 029°41'0 0.0
2014-Nov-26 21:30N 40°46' E 029°41'0 0.0
2014-Nov-26 20:14N 40°46' E 029°41'0 0.0
2014-Nov-26 19:30N 40°46' E 029°41'0 0.0
2014-Nov-26 17:31N 40°46' E 029°41'0 0.0
2014-Nov-26 16:11N 40°46' E 029°41'0 0.0
2014-Nov-26 14:19N 40°46' E 029°41'2 1.8
2014-Nov-26 13:21N 40°45' E 029°39'1011.8
2014-Nov-26 12:32N 40°44' E 029°26'9 9.1
2014-Nov-26 11:33N 40°43' E 029°14'10 9.9
2014-Nov-26 10:33N 40°43' E 029°01'1211.5
2014-Nov-26 09:32N 40°43' E 028°46'8812.2
2014-Nov-26 02:18N 40°28' E 026°51'5210.7
2014-Nov-25 21:26N 39°56' E 025°57'  

Dump ship's entire track history